sensor_id;sensor_type;location;lat;lon;timestamp;pressure;altitude;pressure_sealevel;temperature;humidity
77702;BME280;66868;42.708;23.404;2023-03-03T00:01:22;95228.91;;;5.57;84.75
77702;BME280;66868;42.708;23.404;2023-03-03T00:03:52;95213.28;;;5.50;84.88
77702;BME280;66868;42.708;23.404;2023-03-03T00:06:18;95203.13;;;5.53;84.80
77702;BME280;66868;42.708;23.404;2023-03-03T00:08:44;95231.78;;;5.69;83.93
77702;BME280;66868;42.708;23.404;2023-03-03T00:11:10;95219.19;;;5.71;84.80
77702;BME280;66868;42.708;23.404;2023-03-03T00:13:50;95183.94;;;5.51;84.62
77702;BME280;66868;42.708;23.404;2023-03-03T00:18:50;95200.47;;;5.56;84.50
77702;BME280;66868;42.708;23.404;2023-03-03T00:21:24;95222.38;;;5.74;84.36
77702;BME280;66868;42.708;23.404;2023-03-03T00:23:51;95212.97;;;5.79;84.26
77702;BME280;66868;42.708;23.404;2023-03-03T00:26:36;95208.19;;;5.73;84.50
77702;BME280;66868;42.708;23.404;2023-03-03T00:29:22;95201.47;;;5.74;84.21
77702;BME280;66868;42.708;23.404;2023-03-03T00:31:50;95198.09;;;5.75;83.95
77702;BME280;66868;42.708;23.404;2023-03-03T00:34:26;95198.75;;;5.80;84.84
77702;BME280;66868;42.708;23.404;2023-03-03T00:36:56;95192.03;;;5.81;83.88
77702;BME280;66868;42.708;23.404;2023-03-03T00:39:38;95179.69;;;5.74;83.92
77702;BME280;66868;42.708;23.404;2023-03-03T00:42:14;95198.50;;;5.86;83.90
77702;BME280;66868;42.708;23.404;2023-03-03T00:44:44;95193.53;;;5.85;84.36
77702;BME280;66868;42.708;23.404;2023-03-03T00:49:38;95184.34;;;5.84;83.95
77702;BME280;66868;42.708;23.404;2023-03-03T00:52:14;95155.72;;;5.67;83.95
77702;BME280;66868;42.708;23.404;2023-03-03T00:54:40;95165.41;;;5.76;84.33
77702;BME280;66868;42.708;23.404;2023-03-03T00:57:06;95174.56;;;5.77;83.73
77702;BME280;66868;42.708;23.404;2023-03-03T00:59:31;95167.13;;;5.74;84.85
77702;BME280;66868;42.708;23.404;2023-03-03T01:01:57;95145.75;;;5.64;83.63
77702;BME280;66868;42.708;23.404;2023-03-03T01:04:22;95162.00;;;5.77;84.13
77702;BME280;66868;42.708;23.404;2023-03-03T01:06:47;95156.03;;;5.80;83.93
77702;BME280;66868;42.708;23.404;2023-03-03T01:09:14;95151.97;;;5.77;84.22
77702;BME280;66868;42.708;23.404;2023-03-03T01:11:39;95138.88;;;5.69;84.59
77702;BME280;66868;42.708;23.404;2023-03-03T01:14:05;95119.41;;;5.54;83.71
77702;BME280;66868;42.708;23.404;2023-03-03T01:16:31;95158.69;;;5.77;83.87
77702;BME280;66868;42.708;23.404;2023-03-03T01:18:58;95154.53;;;5.76;84.25
77702;BME280;66868;42.708;23.404;2023-03-03T01:21:23;95142.28;;;5.68;83.80
77702;BME280;66868;42.708;23.404;2023-03-03T01:23:48;95152.16;;;5.73;84.38
77702;BME280;66868;42.708;23.404;2023-03-03T01:26:14;95156.41;;;5.71;83.77
77702;BME280;66868;42.708;23.404;2023-03-03T01:28:39;95142.50;;;5.62;84.27
77702;BME280;66868;42.708;23.404;2023-03-03T01:31:05;95147.41;;;5.65;84.37
77702;BME280;66868;42.708;23.404;2023-03-03T01:33:31;95143.25;;;5.64;84.34
77702;BME280;66868;42.708;23.404;2023-03-03T01:35:57;95144.97;;;5.64;84.88
77702;BME280;66868;42.708;23.404;2023-03-03T01:38:22;95144.03;;;5.66;83.89
77702;BME280;66868;42.708;23.404;2023-03-03T01:40:58;95136.84;;;5.57;84.09
77702;BME280;66868;42.708;23.404;2023-03-03T01:43:31;95138.53;;;5.57;84.27
77702;BME280;66868;42.708;23.404;2023-03-03T01:48:37;95142.88;;;5.53;84.28
77702;BME280;66868;42.708;23.404;2023-03-03T01:53:58;95146.94;;;5.56;83.96
77702;BME280;66868;42.708;23.404;2023-03-03T01:56:25;95142.91;;;5.52;84.65
77702;BME280;66868;42.708;23.404;2023-03-03T01:59:00;95139.59;;;5.51;84.28
77702;BME280;66868;42.708;23.404;2023-03-03T02:01:28;95108.66;;;5.29;84.37
77702;BME280;66868;42.708;23.404;2023-03-03T02:03:55;95137.06;;;5.51;83.71
77702;BME280;66868;42.708;23.404;2023-03-03T02:06:24;95114.75;;;5.45;83.52
77702;BME280;66868;42.708;23.404;2023-03-03T02:09:11;95137.72;;;5.56;84.37
77702;BME280;66868;42.708;23.404;2023-03-03T02:11:40;95109.91;;;5.41;83.75
77702;BME280;66868;42.708;23.404;2023-03-03T02:14:07;95136.06;;;5.55;83.89
77702;BME280;66868;42.708;23.404;2023-03-03T02:16:33;95142.88;;;5.53;84.55
77702;BME280;66868;42.708;23.404;2023-03-03T02:18:58;95135.28;;;5.55;84.30
77702;BME280;66868;42.708;23.404;2023-03-03T02:21:24;95134.34;;;5.57;84.20
77702;BME280;66868;42.708;23.404;2023-03-03T02:24:05;95136.91;;;5.56;84.56
77702;BME280;66868;42.708;23.404;2023-03-03T02:26:35;95148.72;;;5.54;83.97
77702;BME280;66868;42.708;23.404;2023-03-03T02:29:01;95126.16;;;5.52;83.87
77702;BME280;66868;42.708;23.404;2023-03-03T02:31:29;95135.28;;;5.55;84.37
77702;BME280;66868;42.708;23.404;2023-03-03T02:33:55;95141.88;;;5.57;83.63
77702;BME280;66868;42.708;23.404;2023-03-03T02:36:29;95103.47;;;5.33;84.09
77702;BME280;66868;42.708;23.404;2023-03-03T02:39:06;95136.06;;;5.55;84.31
77702;BME280;66868;42.708;23.404;2023-03-03T02:41:57;95134.34;;;5.57;84.35
77702;BME280;66868;42.708;23.404;2023-03-03T02:44:29;95141.00;;;5.58;83.97
77702;BME280;66868;42.708;23.404;2023-03-03T02:46:56;95121.09;;;5.54;83.62
77702;BME280;66868;42.708;23.404;2023-03-03T02:49:26;95110.59;;;5.44;83.53
77702;BME280;66868;42.708;23.404;2023-03-03T02:51:53;95111.09;;;5.52;83.35
77702;BME280;66868;42.708;23.404;2023-03-03T02:54:21;95134.22;;;5.60;83.47
77702;BME280;66868;42.708;23.404;2023-03-03T02:56:47;95124.28;;;5.57;83.66
77702;BME280;66868;42.708;23.404;2023-03-03T02:59:13;95121.28;;;5.49;84.34
77702;BME280;66868;42.708;23.404;2023-03-03T03:01:39;95130.81;;;5.61;84.06
77702;BME280;66868;42.708;23.404;2023-03-03T03:04:06;95131.81;;;5.57;83.90
77702;BME280;66868;42.708;23.404;2023-03-03T03:06:32;95121.84;;;5.56;84.30
77702;BME280;66868;42.708;23.404;2023-03-03T03:08:58;95121.84;;;5.56;84.37
77702;BME280;66868;42.708;23.404;2023-03-03T03:11:25;95105.44;;;5.47;83.78
77702;BME280;66868;42.708;23.404;2023-03-03T03:13:50;95126.81;;;5.57;84.28
77702;BME280;66868;42.708;23.404;2023-03-03T03:16:16;95119.41;;;5.54;83.99
77702;BME280;66868;42.708;23.404;2023-03-03T03:18:41;95123.53;;;5.55;84.71
77702;BME280;66868;42.708;23.404;2023-03-03T03:21:09;95125.00;;;5.61;84.63
77702;BME280;66868;42.708;23.404;2023-03-03T03:23:35;95123.44;;;5.58;83.89
77702;BME280;66868;42.708;23.404;2023-03-03T03:26:00;95116.59;;;5.62;84.38
77702;BME280;66868;42.708;23.404;2023-03-03T03:28:26;95111.88;;;5.54;84.36
77702;BME280;66868;42.708;23.404;2023-03-03T03:30:51;95120.66;;;5.64;84.06
77702;BME280;66868;42.708;23.404;2023-03-03T03:33:17;95110.09;;;5.56;84.27
77702;BME280;66868;42.708;23.404;2023-03-03T03:35:42;95092.06;;;5.47;84.86
77702;BME280;66868;42.708;23.404;2023-03-03T03:38:12;95111.50;;;5.63;84.86
77702;BME280;66868;42.708;23.404;2023-03-03T03:40:38;95075.63;;;5.40;84.27
77702;BME280;66868;42.708;23.404;2023-03-03T03:43:03;95100.81;;;5.58;84.81
77702;BME280;66868;42.708;23.404;2023-03-03T03:45:28;95105.50;;;5.67;84.87
77702;BME280;66868;42.708;23.404;2023-03-03T03:47:54;95095.69;;;5.61;84.50
77702;BME280;66868;42.708;23.404;2023-03-03T03:50:19;95098.13;;;5.63;84.50
77702;BME280;66868;42.708;23.404;2023-03-03T03:52:45;95100.81;;;5.58;84.43
77702;BME280;66868;42.708;23.404;2023-03-03T03:55:10;95102.34;;;5.62;84.57
77702;BME280;66868;42.708;23.404;2023-03-03T03:57:36;95084.19;;;5.56;84.43
77702;BME280;66868;42.708;23.404;2023-03-03T04:00:01;95102.47;;;5.59;85.11
77702;BME280;66868;42.708;23.404;2023-03-03T04:02:26;95101.06;;;5.52;85.13
77702;BME280;66868;42.708;23.404;2023-03-03T04:04:52;95098.03;;;5.44;85.38
77702;BME280;66868;42.708;23.404;2023-03-03T04:07:17;95055.50;;;5.19;85.04
77702;BME280;66868;42.708;23.404;2023-03-03T04:09:43;95084.84;;;5.39;84.93
77702;BME280;66868;42.708;23.404;2023-03-03T04:12:08;95070.28;;;5.27;85.59
77702;BME280;66868;42.708;23.404;2023-03-03T04:14:33;95085.06;;;5.33;86.25
77702;BME280;66868;42.708;23.404;2023-03-03T04:16:59;95083.63;;;5.27;86.05
77702;BME280;66868;42.708;23.404;2023-03-03T04:19:24;95098.50;;;5.32;86.00
77702;BME280;66868;42.708;23.404;2023-03-03T04:21:50;95088.59;;;5.29;86.18
77702;BME280;66868;42.708;23.404;2023-03-03T04:24:15;95076.97;;;5.05;86.86
77702;BME280;66868;42.708;23.404;2023-03-03T04:26:41;95089.06;;;5.17;86.53
77702;BME280;66868;42.708;23.404;2023-03-03T04:29:06;95097.97;;;5.24;87.06
77702;BME280;66868;42.708;23.404;2023-03-03T04:31:32;95086.47;;;5.18;87.33
77702;BME280;66868;42.708;23.404;2023-03-03T04:33:57;95091.88;;;5.31;87.03
77702;BME280;66868;42.708;23.404;2023-03-03T04:36:23;95092.22;;;5.22;86.96
77702;BME280;66868;42.708;23.404;2023-03-03T04:38:48;95059.31;;;5.08;87.31
77702;BME280;66868;42.708;23.404;2023-03-03T04:41:15;95072.88;;;5.24;86.95
77702;BME280;66868;42.708;23.404;2023-03-03T04:43:40;95089.19;;;5.36;86.73
77702;BME280;66868;42.708;23.404;2023-03-03T04:46:05;95094.75;;;5.42;86.74
77702;BME280;66868;42.708;23.404;2023-03-03T04:48:31;95094.75;;;5.42;86.48
77702;BME280;66868;42.708;23.404;2023-03-03T04:50:56;95073.31;;;5.35;87.40
77702;BME280;66868;42.708;23.404;2023-03-03T04:53:22;95086.22;;;5.46;86.55
77702;BME280;66868;42.708;23.404;2023-03-03T04:55:51;95076.69;;;5.34;87.20
77702;BME280;66868;42.708;23.404;2023-03-03T04:58:17;95089.63;;;5.45;86.73
77702;BME280;66868;42.708;23.404;2023-03-03T05:00:44;95073.03;;;5.41;87.08
77702;BME280;66868;42.708;23.404;2023-03-03T05:03:11;95060.34;;;5.24;87.32
77702;BME280;66868;42.708;23.404;2023-03-03T05:05:37;95099.50;;;5.50;86.95
77702;BME280;66868;42.708;23.404;2023-03-03T05:08:02;95087.06;;;5.47;86.74
77702;BME280;66868;42.708;23.404;2023-03-03T05:10:27;95091.84;;;5.53;86.85
77702;BME280;66868;42.708;23.404;2023-03-03T05:12:53;95093.47;;;5.54;86.58
77702;BME280;66868;42.708;23.404;2023-03-03T05:15:19;95103.38;;;5.57;86.01
77702;BME280;66868;42.708;23.404;2023-03-03T05:17:45;95102.38;;;5.61;86.29
77702;BME280;66868;42.708;23.404;2023-03-03T05:20:11;95107.41;;;5.61;86.38
77702;BME280;66868;42.708;23.404;2023-03-03T05:22:37;95103.06;;;5.64;86.66
77702;BME280;66868;42.708;23.404;2023-03-03T05:25:03;95101.97;;;5.71;86.49
77702;BME280;66868;42.708;23.404;2023-03-03T05:27:28;95107.63;;;5.76;86.52
77702;BME280;66868;42.708;23.404;2023-03-03T05:29:53;95110.69;;;5.83;86.26
77702;BME280;66868;42.708;23.404;2023-03-03T05:32:19;95109.75;;;5.87;86.20
77702;BME280;66868;42.708;23.404;2023-03-03T05:34:44;95100.50;;;5.88;86.61
77702;BME280;66868;42.708;23.404;2023-03-03T05:37:10;95080.00;;;5.76;86.56
77702;BME280;66868;42.708;23.404;2023-03-03T05:39:35;95111.94;;;5.95;86.43
77702;BME280;66868;42.708;23.404;2023-03-03T05:42:01;95111.81;;;5.98;86.00
77702;BME280;66868;42.708;23.404;2023-03-03T05:44:27;95104.28;;;5.98;86.34
77702;BME280;66868;42.708;23.404;2023-03-03T05:46:52;95117.47;;;6.03;85.82
77702;BME280;66868;42.708;23.404;2023-03-03T05:49:17;95110.81;;;6.02;86.09
77702;BME280;66868;42.708;23.404;2023-03-03T05:51:43;95110.44;;;6.11;86.17
77702;BME280;66868;42.708;23.404;2023-03-03T05:54:08;95120.91;;;6.20;85.61
77702;BME280;66868;42.708;23.404;2023-03-03T05:56:34;95115.63;;;6.27;85.55
77702;BME280;66868;42.708;23.404;2023-03-03T05:58:59;95119.72;;;6.29;85.58
77702;BME280;66868;42.708;23.404;2023-03-03T06:01:25;95116.81;;;6.38;85.25
77702;BME280;66868;42.708;23.404;2023-03-03T06:03:51;95103.56;;;6.35;84.76
77702;BME280;66868;42.708;23.404;2023-03-03T06:06:16;95120.56;;;6.48;84.54
77702;BME280;66868;42.708;23.404;2023-03-03T06:08:44;95117.75;;;6.56;84.52
77702;BME280;66868;42.708;23.404;2023-03-03T06:11:09;95114.22;;;6.60;84.58
77702;BME280;66868;42.708;23.404;2023-03-03T06:13:36;95098.50;;;6.55;84.32
77702;BME280;66868;42.708;23.404;2023-03-03T06:16:24;95112.75;;;6.75;83.98
77702;BME280;66868;42.708;23.404;2023-03-03T06:18:50;95091.63;;;6.58;83.86
77702;BME280;66868;42.708;23.404;2023-03-03T06:21:15;95107.00;;;6.71;84.04
77702;BME280;66868;42.708;23.404;2023-03-03T06:23:41;95103.41;;;6.77;83.58
77702;BME280;66868;42.708;23.404;2023-03-03T06:26:06;95121.38;;;6.88;83.66
77702;BME280;66868;42.708;23.404;2023-03-03T06:28:32;95125.53;;;6.89;83.54
77702;BME280;66868;42.708;23.404;2023-03-03T06:31:02;95110.34;;;6.72;83.41
77702;BME280;66868;42.708;23.404;2023-03-03T06:33:28;95109.47;;;6.73;83.30
77702;BME280;66868;42.708;23.404;2023-03-03T06:35:54;95128.16;;;6.86;82.99
77702;BME280;66868;42.708;23.404;2023-03-03T06:38:19;95122.25;;;6.87;82.95
77702;BME280;66868;42.708;23.404;2023-03-03T06:40:46;95122.66;;;6.78;82.93
77702;BME280;66868;42.708;23.404;2023-03-03T06:43:12;95121.63;;;6.82;83.28
77702;BME280;66868;42.708;23.404;2023-03-03T06:45:37;95102.78;;;6.72;82.82
77702;BME280;66868;42.708;23.404;2023-03-03T06:48:03;95118.97;;;6.85;83.24
77702;BME280;66868;42.708;23.404;2023-03-03T06:50:28;95123.59;;;6.94;83.17
77702;BME280;66868;42.708;23.404;2023-03-03T06:53:10;95076.56;;;6.58;83.39
77702;BME280;66868;42.708;23.404;2023-03-03T06:55:47;95130.16;;;6.98;83.27
77702;BME280;66868;42.708;23.404;2023-03-03T06:58:18;95132.38;;;7.04;83.00
77702;BME280;66868;42.708;23.404;2023-03-03T07:00:57;95135.06;;;7.01;83.06
77702;BME280;66868;42.708;23.404;2023-03-03T07:03:25;95138.19;;;7.06;83.08
77702;BME280;66868;42.708;23.404;2023-03-03T07:05:53;95138.19;;;7.06;82.24
77702;BME280;66868;42.708;23.404;2023-03-03T07:08:21;95133.00;;;7.09;81.95
77702;BME280;66868;42.708;23.404;2023-03-03T07:10:48;95142.81;;;7.15;82.32
77702;BME280;66868;42.708;23.404;2023-03-03T07:13:25;95130.53;;;7.26;81.60
77702;BME280;66868;42.708;23.404;2023-03-03T07:15:52;95129.88;;;7.23;81.54
77702;BME280;66868;42.708;23.404;2023-03-03T07:20:49;95123.59;;;7.31;81.48
77702;BME280;66868;42.708;23.404;2023-03-03T07:25:43;95135.72;;;7.59;80.46
77702;BME280;66868;42.708;23.404;2023-03-03T07:28:21;95123.47;;;7.70;79.92
77702;BME280;66868;42.708;23.404;2023-03-03T07:30:47;95135.19;;;7.88;79.54
77702;BME280;66868;42.708;23.404;2023-03-03T07:33:41;95132.06;;;7.83;79.92
77702;BME280;66868;42.708;23.404;2023-03-03T07:36:29;95130.75;;;7.76;80.13
77702;BME280;66868;42.708;23.404;2023-03-03T07:39:00;95129.09;;;7.92;81.33
77702;BME280;66868;42.708;23.404;2023-03-03T07:41:28;95134.22;;;8.08;80.11
77702;BME280;66868;42.708;23.404;2023-03-03T07:44:00;95133.63;;;8.20;78.78
77702;BME280;66868;42.708;23.404;2023-03-03T07:46:42;95095.94;;;8.00;78.67
77702;BME280;66868;42.708;23.404;2023-03-03T07:49:35;95105.00;;;7.87;78.26
77702;BME280;66868;42.708;23.404;2023-03-03T07:52:28;95113.38;;;7.87;78.79
77702;BME280;66868;42.708;23.404;2023-03-03T07:54:57;95114.41;;;7.83;78.15
77702;BME280;66868;42.708;23.404;2023-03-03T07:57:35;95127.56;;;7.90;78.71
77702;BME280;66868;42.708;23.404;2023-03-03T08:02:35;95118.63;;;8.00;78.33
77702;BME280;66868;42.708;23.404;2023-03-03T08:05:22;95118.63;;;8.00;77.97
77702;BME280;66868;42.708;23.404;2023-03-03T08:07:50;95123.41;;;8.06;77.30
77702;BME280;66868;42.708;23.404;2023-03-03T08:10:57;95128.00;;;8.15;77.27
77702;BME280;66868;42.708;23.404;2023-03-03T08:13:24;95125.75;;;8.26;77.59
77702;BME280;66868;42.708;23.404;2023-03-03T08:18:45;95128.59;;;8.37;76.88
77702;BME280;66868;42.708;23.404;2023-03-03T08:21:24;95124.00;;;8.46;76.53
77702;BME280;66868;42.708;23.404;2023-03-03T08:23:50;95105.88;;;8.37;76.49
77702;BME280;66868;42.708;23.404;2023-03-03T08:26:18;95111.53;;;8.42;76.35
77702;BME280;66868;42.708;23.404;2023-03-03T08:28:45;95108.75;;;8.47;75.96
77702;BME280;66868;42.708;23.404;2023-03-03T08:31:11;95116.56;;;8.42;75.85
77702;BME280;66868;42.708;23.404;2023-03-03T08:33:37;95107.81;;;8.50;75.81
77702;BME280;66868;42.708;23.404;2023-03-03T08:36:03;95109.44;;;8.51;76.11
77702;BME280;66868;42.708;23.404;2023-03-03T08:38:29;95108.28;;;8.40;76.46
77702;BME280;66868;42.708;23.404;2023-03-03T08:40:54;95095.06;;;8.35;76.93
77702;BME280;66868;42.708;23.404;2023-03-03T08:43:20;95104.06;;;8.57;77.12
77702;BME280;66868;42.708;23.404;2023-03-03T08:45:50;95108.22;;;8.58;76.60
77702;BME280;66868;42.708;23.404;2023-03-03T08:48:16;95100.81;;;8.55;76.35
77702;BME280;66868;42.708;23.404;2023-03-03T08:50:42;95118.38;;;8.73;76.51
77702;BME280;66868;42.708;23.404;2023-03-03T08:53:09;95116.25;;;8.81;76.22
77702;BME280;66868;42.708;23.404;2023-03-03T08:55:35;95113.72;;;8.97;75.95
77702;BME280;66868;42.708;23.404;2023-03-03T08:58:00;95113.59;;;9.00;75.86
77702;BME280;66868;42.708;23.404;2023-03-03T09:00:26;95114.06;;;8.91;74.95
77702;BME280;66868;42.708;23.404;2023-03-03T09:02:53;95106.91;;;8.99;75.19
77702;BME280;66868;42.708;23.404;2023-03-03T09:05:19;95112.28;;;9.09;74.91
77702;BME280;66868;42.708;23.404;2023-03-03T09:07:46;95113.91;;;9.25;75.30
77702;BME280;66868;42.708;23.404;2023-03-03T09:10:14;95101.38;;;9.24;75.05
77702;BME280;66868;42.708;23.404;2023-03-03T09:12:46;95111.41;;;9.41;74.51
77702;BME280;66868;42.708;23.404;2023-03-03T09:17:45;95111.78;;;9.65;74.35
77702;BME280;66868;42.708;23.404;2023-03-03T09:22:59;95114.00;;;9.85;73.26
77702;BME280;66868;42.708;23.404;2023-03-03T09:25:41;95107.13;;;10.03;72.70
77702;BME280;66868;42.708;23.404;2023-03-03T09:28:21;95110.66;;;10.14;72.36
77702;BME280;66868;42.708;23.404;2023-03-03T09:30:49;95104.78;;;10.14;71.10
77702;BME280;66868;42.708;23.404;2023-03-03T09:33:19;95104.91;;;10.27;71.02
77702;BME280;66868;42.708;23.404;2023-03-03T09:35:50;95105.22;;;10.06;70.29
77702;BME280;66868;42.708;23.404;2023-03-03T09:41:00;95117.97;;;10.35;70.60
77702;BME280;66868;42.708;23.404;2023-03-03T09:49:00;95116.72;;;10.56;70.09
77702;BME280;66868;42.708;23.404;2023-03-03T09:56:39;95091.72;;;10.92;68.72
77702;BME280;66868;42.708;23.404;2023-03-03T10:05:09;95110.75;;;10.99;68.25
77702;BME280;66868;42.708;23.404;2023-03-03T10:17:50;95105.09;;;11.23;65.91
77702;BME280;66868;42.708;23.404;2023-03-03T10:23:26;95095.09;;;11.34;64.91
77702;BME280;66868;42.708;23.404;2023-03-03T10:26:16;95080.16;;;11.29;65.33
77702;BME280;66868;42.708;23.404;2023-03-03T10:48:28;95074.31;;;11.15;66.67
77702;BME280;66868;42.708;23.404;2023-03-03T11:04:53;95059.94;;;10.46;66.80
77702;BME280;66868;42.708;23.404;2023-03-03T11:07:43;95056.22;;;10.37;67.63
77702;BME280;66868;42.708;23.404;2023-03-03T11:13:08;95055.84;;;9.10;71.97
77702;BME280;66868;42.708;23.404;2023-03-03T11:19:00;95040.47;;;9.14;72.35
77702;BME280;66868;42.708;23.404;2023-03-03T11:40:18;95046.22;;;8.54;75.08
77702;BME280;66868;42.708;23.404;2023-03-03T11:45:48;95036.06;;;8.55;74.71
77702;BME280;66868;42.708;23.404;2023-03-03T11:48:26;95016.59;;;8.41;74.41
77702;BME280;66868;42.708;23.404;2023-03-03T11:51:03;95031.00;;;8.71;74.46
77702;BME280;66868;42.708;23.404;2023-03-03T11:53:42;95032.28;;;8.47;75.02
77702;BME280;66868;42.708;23.404;2023-03-03T11:56:22;95026.41;;;8.30;74.92
77702;BME280;66868;42.708;23.404;2023-03-03T11:58:57;95024.00;;;8.45;74.63
77702;BME280;66868;42.708;23.404;2023-03-03T12:02:09;95024.81;;;8.45;75.15
77702;BME280;66868;42.708;23.404;2023-03-03T12:04:54;95033.84;;;8.49;74.97
77702;BME280;66868;42.708;23.404;2023-03-03T12:07:33;95007.03;;;7.81;78.07
77702;BME280;66868;42.708;23.404;2023-03-03T12:10:16;95031.38;;;8.15;77.78
77702;BME280;66868;42.708;23.404;2023-03-03T12:12:50;95028.78;;;8.16;77.98
77702;BME280;66868;42.708;23.404;2023-03-03T12:18:14;95029.59;;;8.17;78.50
77702;BME280;66868;42.708;23.404;2023-03-03T12:21:13;95032.75;;;8.37;78.17
77702;BME280;66868;42.708;23.404;2023-03-03T12:27:27;95016.78;;;8.04;78.45
77702;BME280;66868;42.708;23.404;2023-03-03T12:44:19;95040.59;;;7.64;83.27
77702;BME280;66868;42.708;23.404;2023-03-03T12:47:15;95031.78;;;7.90;82.34
77702;BME280;66868;42.708;23.404;2023-03-03T12:50:02;95030.78;;;7.77;81.93
77702;BME280;66868;42.708;23.404;2023-03-03T12:53:05;95036.06;;;7.36;83.23
77702;BME280;66868;42.708;23.404;2023-03-03T13:07:04;95028.22;;;6.71;88.27
77702;BME280;66868;42.708;23.404;2023-03-03T13:14:43;95017.38;;;6.51;89.00
77702;BME280;66868;42.708;23.404;2023-03-03T13:19:53;95024.09;;;6.32;89.48
77702;BME280;66868;42.708;23.404;2023-03-03T13:27:43;95016.00;;;5.87;93.53
77702;BME280;66868;42.708;23.404;2023-03-03T13:30:23;94999.16;;;5.89;93.16
77702;BME280;66868;42.708;23.404;2023-03-03T13:33:25;95015.22;;;6.05;92.28
77702;BME280;66868;42.708;23.404;2023-03-03T13:35:59;95008.50;;;6.05;91.06
77702;BME280;66868;42.708;23.404;2023-03-03T13:38:30;95016.19;;;6.21;90.63
77702;BME280;66868;42.708;23.404;2023-03-03T13:43:48;95025.72;;;7.25;87.36
77702;BME280;66868;42.708;23.404;2023-03-03T13:46:39;95017.63;;;8.20;85.51
77702;BME280;66868;42.708;23.404;2023-03-03T13:49:26;95010.06;;;8.20;84.50
77702;BME280;66868;42.708;23.404;2023-03-03T13:52:05;95017.63;;;8.37;82.54
77702;BME280;66868;42.708;23.404;2023-03-03T13:57:22;95018.97;;;8.92;78.41
77702;BME280;66868;42.708;23.404;2023-03-03T14:10:23;95017.84;;;7.31;85.39
77702;BME280;66868;42.708;23.404;2023-03-03T14:13:11;95016.19;;;7.49;85.64
77702;BME280;66868;42.708;23.404;2023-03-03T14:15:50;95020.97;;;7.36;84.96
77702;BME280;66868;42.708;23.404;2023-03-03T14:18:26;95007.69;;;7.16;85.96
77702;BME280;66868;42.708;23.404;2023-03-03T14:20:55;95018.31;;;7.03;87.10
77702;BME280;66868;42.708;23.404;2023-03-03T14:24:06;95003.66;;;6.76;88.14
77702;BME280;66868;42.708;23.404;2023-03-03T14:26:53;95005.47;;;6.55;89.15
77702;BME280;66868;42.708;23.404;2023-03-03T14:31:50;95000.66;;;6.50;90.06
77702;BME280;66868;42.708;23.404;2023-03-03T14:36:48;94998.00;;;6.53;90.52
77702;BME280;66868;42.708;23.404;2023-03-03T14:39:34;94875.97;;;5.71;90.79
77702;BME280;66868;42.708;23.404;2023-03-03T14:42:05;94980.47;;;6.33;91.20
77702;BME280;66868;42.708;23.404;2023-03-03T14:44:49;94975.97;;;6.40;91.10
77702;BME280;66868;42.708;23.404;2023-03-03T14:49:46;94999.16;;;6.46;90.79
77702;BME280;66868;42.708;23.404;2023-03-03T14:52:26;94998.28;;;6.47;90.07
77702;BME280;66868;42.708;23.404;2023-03-03T14:54:57;95006.59;;;6.48;90.85
77702;BME280;66868;42.708;23.404;2023-03-03T14:57:39;94996.75;;;6.43;90.93
77702;BME280;66868;42.708;23.404;2023-03-03T15:05:26;94992.84;;;6.38;89.82
77702;BME280;66868;42.708;23.404;2023-03-03T15:08:07;94982.50;;;6.25;90.27
77702;BME280;66868;42.708;23.404;2023-03-03T15:10:42;94990.44;;;6.35;90.34
77702;BME280;66868;42.708;23.404;2023-03-03T15:15:52;94974.88;;;6.45;90.64
77702;BME280;66868;42.708;23.404;2023-03-03T15:18:25;94874.47;;;5.67;90.65
77702;BME280;66868;42.708;23.404;2023-03-03T15:21:12;94984.13;;;6.26;91.40
77702;BME280;66868;42.708;23.404;2023-03-03T15:26:45;94992.44;;;6.28;92.11
77702;BME280;66868;42.708;23.404;2023-03-03T15:29:24;94995.00;;;6.45;92.16
77702;BME280;66868;42.708;23.404;2023-03-03T15:32:08;94989.56;;;6.36;91.56
77702;BME280;66868;42.708;23.404;2023-03-03T15:34:55;94975.84;;;6.24;91.96
77702;BME280;66868;42.708;23.404;2023-03-03T15:37:56;94998.81;;;6.35;91.72
77702;BME280;66868;42.708;23.404;2023-03-03T15:40:27;94999.00;;;6.31;92.47
77702;BME280;66868;42.708;23.404;2023-03-03T15:43:05;94999.47;;;6.39;92.70
77702;BME280;66868;42.708;23.404;2023-03-03T16:03:01;94989.09;;;6.46;89.42
77702;BME280;66868;42.708;23.404;2023-03-03T16:05:43;95013.72;;;6.76;88.65
77702;BME280;66868;42.708;23.404;2023-03-03T16:08:16;95009.00;;;6.70;88.50
77702;BME280;66868;42.708;23.404;2023-03-03T16:10:58;95011.81;;;6.81;88.89
77702;BME280;66868;42.708;23.404;2023-03-03T16:13:44;94980.72;;;6.64;88.13
77702;BME280;66868;42.708;23.404;2023-03-03T16:17:00;95022.81;;;6.80;88.24
77702;BME280;66868;42.708;23.404;2023-03-03T16:28:02;95019.47;;;6.79;88.07
77702;BME280;66868;42.708;23.404;2023-03-03T16:30:38;95035.63;;;6.92;87.73
77702;BME280;66868;42.708;23.404;2023-03-03T16:35:50;94994.72;;;6.70;87.37
77702;BME280;66868;42.708;23.404;2023-03-03T16:38:31;95045.78;;;7.08;87.36
77702;BME280;66868;42.708;23.404;2023-03-03T16:41:00;95029.63;;;6.95;87.51
77702;BME280;66868;42.708;23.404;2023-03-03T16:46:45;95042.97;;;6.97;87.32
77702;BME280;66868;42.708;23.404;2023-03-03T16:51:51;95050.75;;;6.74;88.44
77702;BME280;66868;42.708;23.404;2023-03-03T16:54:35;95053.03;;;6.78;88.35
77702;BME280;66868;42.708;23.404;2023-03-03T16:57:27;95053.88;;;6.79;88.69
77702;BME280;66868;42.708;23.404;2023-03-03T17:05:45;95074.91;;;6.95;87.29
77702;BME280;66868;42.708;23.404;2023-03-03T17:08:52;95074.38;;;7.07;87.31
77702;BME280;66868;42.708;23.404;2023-03-03T17:11:48;95070.84;;;7.11;87.62
77702;BME280;66868;42.708;23.404;2023-03-03T17:17:21;95057.50;;;7.09;87.36
77702;BME280;66868;42.708;23.404;2023-03-03T17:19:53;95067.13;;;7.18;87.30
77702;BME280;66868;42.708;23.404;2023-03-03T17:22:28;95076.28;;;7.02;87.74
77702;BME280;66868;42.708;23.404;2023-03-03T17:38:35;95074.34;;;7.26;86.93
77702;BME280;66868;42.708;23.404;2023-03-03T17:41:05;95088.72;;;7.41;86.13